sensor_id;sensor_type;location;lat;lon;timestamp;temperature;humidity
69261;DHT22;56378;52.404;20.816;2022-12-29T00:01:35;4.70;81.00
69261;DHT22;56378;52.404;20.816;2022-12-29T00:04:01;4.70;80.80
69261;DHT22;56378;52.404;20.816;2022-12-29T00:06:27;4.70;80.50
69261;DHT22;56378;52.404;20.816;2022-12-29T00:08:53;4.80;80.60
69261;DHT22;56378;52.404;20.816;2022-12-29T00:11:22;4.70;80.40
69261;DHT22;56378;52.404;20.816;2022-12-29T00:13:48;4.80;80.00
69261;DHT22;56378;52.404;20.816;2022-12-29T00:16:34;4.80;80.40
69261;DHT22;56378;52.404;20.816;2022-12-29T00:19:01;4.70;80.30
69261;DHT22;56378;52.404;20.816;2022-12-29T00:21:27;4.70;80.00
69261;DHT22;56378;52.404;20.816;2022-12-29T00:24:17;4.80;79.90
69261;DHT22;56378;52.404;20.816;2022-12-29T00:27:12;4.80;79.90
69261;DHT22;56378;52.404;20.816;2022-12-29T00:29:57;4.80;79.60
69261;DHT22;56378;52.404;20.816;2022-12-29T00:32:41;4.80;79.50
69261;DHT22;56378;52.404;20.816;2022-12-29T00:35:33;4.80;79.70
69261;DHT22;56378;52.404;20.816;2022-12-29T00:38:04;4.80;79.70
69261;DHT22;56378;52.404;20.816;2022-12-29T00:40:49;4.80;79.50
69261;DHT22;56378;52.404;20.816;2022-12-29T00:43:33;4.80;79.70
69261;DHT22;56378;52.404;20.816;2022-12-29T00:46:18;4.80;79.70
69261;DHT22;56378;52.404;20.816;2022-12-29T00:48:43;4.80;79.80
69261;DHT22;56378;52.404;20.816;2022-12-29T00:51:28;4.80;79.90
69261;DHT22;56378;52.404;20.816;2022-12-29T00:53:54;4.80;79.90
69261;DHT22;56378;52.404;20.816;2022-12-29T00:56:19;4.80;79.70
69261;DHT22;56378;52.404;20.816;2022-12-29T00:58:45;4.80;79.80
69261;DHT22;56378;52.404;20.816;2022-12-29T01:01:11;4.80;79.60
69261;DHT22;56378;52.404;20.816;2022-12-29T01:03:37;4.90;79.50
69261;DHT22;56378;52.404;20.816;2022-12-29T01:06:08;4.90;79.30
69261;DHT22;56378;52.404;20.816;2022-12-29T01:08:34;4.90;79.20
69261;DHT22;56378;52.404;20.816;2022-12-29T01:11:09;4.90;79.50
69261;DHT22;56378;52.404;20.816;2022-12-29T01:13:35;4.90;79.60
69261;DHT22;56378;52.404;20.816;2022-12-29T01:16:04;4.80;79.50
69261;DHT22;56378;52.404;20.816;2022-12-29T01:18:30;4.80;79.30
69261;DHT22;56378;52.404;20.816;2022-12-29T01:21:01;4.90;79.10
69261;DHT22;56378;52.404;20.816;2022-12-29T01:23:27;4.80;79.50
69261;DHT22;56378;52.404;20.816;2022-12-29T01:25:53;4.90;79.50
69261;DHT22;56378;52.404;20.816;2022-12-29T01:28:19;4.90;79.30
69261;DHT22;56378;52.404;20.816;2022-12-29T01:30:45;4.90;79.20
69261;DHT22;56378;52.404;20.816;2022-12-29T01:33:10;4.90;79.10
69261;DHT22;56378;52.404;20.816;2022-12-29T01:35:36;4.90;79.30
69261;DHT22;56378;52.404;20.816;2022-12-29T01:38:02;4.90;79.20
69261;DHT22;56378;52.404;20.816;2022-12-29T01:40:28;4.90;79.40
69261;DHT22;56378;52.404;20.816;2022-12-29T01:42:54;4.90;79.20
69261;DHT22;56378;52.404;20.816;2022-12-29T01:45:20;4.90;79.30
69261;DHT22;56378;52.404;20.816;2022-12-29T01:47:57;4.90;79.10
69261;DHT22;56378;52.404;20.816;2022-12-29T01:50:37;4.90;79.00
69261;DHT22;56378;52.404;20.816;2022-12-29T01:53:11;4.90;78.90
69261;DHT22;56378;52.404;20.816;2022-12-29T01:55:45;4.90;78.60
69261;DHT22;56378;52.404;20.816;2022-12-29T01:58:13;5.00;79.20
69261;DHT22;56378;52.404;20.816;2022-12-29T02:00:40;5.00;79.80
69261;DHT22;56378;52.404;20.816;2022-12-29T02:03:06;4.90;79.90
69261;DHT22;56378;52.404;20.816;2022-12-29T02:05:57;4.90;80.50
69261;DHT22;56378;52.404;20.816;2022-12-29T02:08:27;5.00;81.00
69261;DHT22;56378;52.404;20.816;2022-12-29T02:10:55;4.90;81.40
69261;DHT22;56378;52.404;20.816;2022-12-29T02:13:24;4.90;82.70
69261;DHT22;56378;52.404;20.816;2022-12-29T02:21:48;4.70;83.20
69261;DHT22;56378;52.404;20.816;2022-12-29T02:30:03;4.60;84.20
69261;DHT22;56378;52.404;20.816;2022-12-29T02:32:49;4.60;85.20
69261;DHT22;56378;52.404;20.816;2022-12-29T02:40:57;4.50;87.30
69261;DHT22;56378;52.404;20.816;2022-12-29T02:46:27;4.40;88.20
69261;DHT22;56378;52.404;20.816;2022-12-29T02:54:07;4.20;91.90
69261;DHT22;56378;52.404;20.816;2022-12-29T02:56:52;4.20;92.80
69261;DHT22;56378;52.404;20.816;2022-12-29T02:59:19;4.10;93.20
69261;DHT22;56378;52.404;20.816;2022-12-29T03:10:55;3.90;95.70
69261;DHT22;56378;52.404;20.816;2022-12-29T03:19:26;3.90;97.40
69261;DHT22;56378;52.404;20.816;2022-12-29T03:21:48;3.90;97.60
69261;DHT22;56378;52.404;20.816;2022-12-29T03:24:37;3.80;98.00
69261;DHT22;56378;52.404;20.816;2022-12-29T03:27:05;3.80;98.80
69261;DHT22;56378;52.404;20.816;2022-12-29T03:29:37;3.80;99.10
69261;DHT22;56378;52.404;20.816;2022-12-29T03:32:05;3.80;99.60
69261;DHT22;56378;52.404;20.816;2022-12-29T03:34:31;3.70;99.50
69261;DHT22;56378;52.404;20.816;2022-12-29T03:37:02;3.70;99.80
69261;DHT22;56378;52.404;20.816;2022-12-29T03:39:28;3.70;99.90
69261;DHT22;56378;52.404;20.816;2022-12-29T03:42:11;3.70;99.90
69261;DHT22;56378;52.404;20.816;2022-12-29T03:44:41;3.70;99.90
69261;DHT22;56378;52.404;20.816;2022-12-29T03:47:07;3.70;99.90
69261;DHT22;56378;52.404;20.816;2022-12-29T03:49:35;3.60;99.90
69261;DHT22;56378;52.404;20.816;2022-12-29T03:52:01;3.60;99.90
69261;DHT22;56378;52.404;20.816;2022-12-29T03:54:26;3.60;99.90
69261;DHT22;56378;52.404;20.816;2022-12-29T03:56:52;3.50;99.90
69261;DHT22;56378;52.404;20.816;2022-12-29T03:59:18;3.50;99.90
69261;DHT22;56378;52.404;20.816;2022-12-29T04:01:43;3.60;99.90
69261;DHT22;56378;52.404;20.816;2022-12-29T04:04:09;3.60;99.90
69261;DHT22;56378;52.404;20.816;2022-12-29T04:06:35;3.50;99.90
69261;DHT22;56378;52.404;20.816;2022-12-29T04:09:00;3.50;99.90
69261;DHT22;56378;52.404;20.816;2022-12-29T04:11:26;3.50;99.90
69261;DHT22;56378;52.404;20.816;2022-12-29T04:13:52;3.50;99.90
69261;DHT22;56378;52.404;20.816;2022-12-29T04:16:18;3.50;99.90
69261;DHT22;56378;52.404;20.816;2022-12-29T04:18:43;3.50;99.90
69261;DHT22;56378;52.404;20.816;2022-12-29T04:21:09;3.40;99.90
69261;DHT22;56378;52.404;20.816;2022-12-29T04:23:37;3.50;99.90
69261;DHT22;56378;52.404;20.816;2022-12-29T04:26:04;3.40;99.90
69261;DHT22;56378;52.404;20.816;2022-12-29T04:28:31;3.40;99.90
69261;DHT22;56378;52.404;20.816;2022-12-29T04:30:57;3.40;99.90
69261;DHT22;56378;52.404;20.816;2022-12-29T04:33:23;3.40;99.90
69261;DHT22;56378;52.404;20.816;2022-12-29T04:35:48;3.40;99.90
69261;DHT22;56378;52.404;20.816;2022-12-29T04:38:15;3.30;99.90
69261;DHT22;56378;52.404;20.816;2022-12-29T04:40:42;3.30;99.90
69261;DHT22;56378;52.404;20.816;2022-12-29T04:43:08;3.30;99.90
69261;DHT22;56378;52.404;20.816;2022-12-29T04:45:35;3.30;99.90
69261;DHT22;56378;52.404;20.816;2022-12-29T04:48:00;3.30;99.90
69261;DHT22;56378;52.404;20.816;2022-12-29T04:50:26;3.30;99.90
69261;DHT22;56378;52.404;20.816;2022-12-29T04:52:52;3.30;99.90
69261;DHT22;56378;52.404;20.816;2022-12-29T04:55:18;3.30;99.90
69261;DHT22;56378;52.404;20.816;2022-12-29T04:57:43;3.30;99.90
69261;DHT22;56378;52.404;20.816;2022-12-29T05:00:10;3.30;99.90
69261;DHT22;56378;52.404;20.816;2022-12-29T05:02:36;3.30;99.90
69261;DHT22;56378;52.404;20.816;2022-12-29T05:05:03;3.20;99.90
69261;DHT22;56378;52.404;20.816;2022-12-29T05:07:29;3.20;99.90
69261;DHT22;56378;52.404;20.816;2022-12-29T05:09:54;3.20;99.90
69261;DHT22;56378;52.404;20.816;2022-12-29T05:12:20;3.30;99.90
69261;DHT22;56378;52.404;20.816;2022-12-29T05:14:46;3.20;99.90
69261;DHT22;56378;52.404;20.816;2022-12-29T05:20:33;3.30;99.90
69261;DHT22;56378;52.404;20.816;2022-12-29T05:22:59;3.20;99.90
69261;DHT22;56378;52.404;20.816;2022-12-29T05:25:25;3.20;99.90
69261;DHT22;56378;52.404;20.816;2022-12-29T05:27:51;3.20;99.90
69261;DHT22;56378;52.404;20.816;2022-12-29T05:30:16;3.20;99.90
69261;DHT22;56378;52.404;20.816;2022-12-29T05:32:42;3.20;99.90
69261;DHT22;56378;52.404;20.816;2022-12-29T05:35:08;3.30;99.90
69261;DHT22;56378;52.404;20.816;2022-12-29T05:37:34;3.30;99.90
69261;DHT22;56378;52.404;20.816;2022-12-29T05:39:59;3.30;99.90
69261;DHT22;56378;52.404;20.816;2022-12-29T05:42:25;3.30;99.50
69261;DHT22;56378;52.404;20.816;2022-12-29T05:44:51;3.30;99.40
69261;DHT22;56378;52.404;20.816;2022-12-29T05:47:19;3.20;98.90
69261;DHT22;56378;52.404;20.816;2022-12-29T05:49:44;3.30;98.40
69261;DHT22;56378;52.404;20.816;2022-12-29T05:52:41;3.30;98.10
69261;DHT22;56378;52.404;20.816;2022-12-29T05:55:07;3.30;97.90
69261;DHT22;56378;52.404;20.816;2022-12-29T05:57:33;3.20;97.60
69261;DHT22;56378;52.404;20.816;2022-12-29T05:59:59;3.20;97.00
69261;DHT22;56378;52.404;20.816;2022-12-29T06:02:24;3.20;97.40
69261;DHT22;56378;52.404;20.816;2022-12-29T06:04:50;3.30;96.40
69261;DHT22;56378;52.404;20.816;2022-12-29T06:07:16;3.30;96.20
69261;DHT22;56378;52.404;20.816;2022-12-29T06:09:42;3.30;95.90
69261;DHT22;56378;52.404;20.816;2022-12-29T06:12:07;3.30;95.30
69261;DHT22;56378;52.404;20.816;2022-12-29T06:14:33;3.30;95.10
69261;DHT22;56378;52.404;20.816;2022-12-29T06:16:59;3.30;95.10
69261;DHT22;56378;52.404;20.816;2022-12-29T06:19:25;3.30;94.50
69261;DHT22;56378;52.404;20.816;2022-12-29T06:21:51;3.40;93.70
69261;DHT22;56378;52.404;20.816;2022-12-29T06:24:18;3.40;93.30
69261;DHT22;56378;52.404;20.816;2022-12-29T06:26:43;3.40;93.20
69261;DHT22;56378;52.404;20.816;2022-12-29T06:29:09;3.40;92.90
69261;DHT22;56378;52.404;20.816;2022-12-29T06:31:35;3.40;92.80
69261;DHT22;56378;52.404;20.816;2022-12-29T06:34:01;3.40;92.10
69261;DHT22;56378;52.404;20.816;2022-12-29T06:36:28;3.40;92.20
69261;DHT22;56378;52.404;20.816;2022-12-29T06:38:54;3.40;91.80
69261;DHT22;56378;52.404;20.816;2022-12-29T06:41:20;3.50;91.60
69261;DHT22;56378;52.404;20.816;2022-12-29T06:43:46;3.50;91.80
69261;DHT22;56378;52.404;20.816;2022-12-29T06:46:12;3.50;91.60
69261;DHT22;56378;52.404;20.816;2022-12-29T06:48:37;3.50;91.90
69261;DHT22;56378;52.404;20.816;2022-12-29T06:51:03;3.50;91.60
69261;DHT22;56378;52.404;20.816;2022-12-29T06:53:29;3.50;91.20
69261;DHT22;56378;52.404;20.816;2022-12-29T06:55:55;3.50;91.70
69261;DHT22;56378;52.404;20.816;2022-12-29T06:58:22;3.50;91.80
69261;DHT22;56378;52.404;20.816;2022-12-29T07:00:49;3.50;91.90
69261;DHT22;56378;52.404;20.816;2022-12-29T07:03:15;3.50;91.00
69261;DHT22;56378;52.404;20.816;2022-12-29T07:05:40;3.60;90.70
69261;DHT22;56378;52.404;20.816;2022-12-29T07:08:06;3.60;90.40
69261;DHT22;56378;52.404;20.816;2022-12-29T07:10:32;3.60;90.10
69261;DHT22;56378;52.404;20.816;2022-12-29T07:12:57;3.60;89.80
69261;DHT22;56378;52.404;20.816;2022-12-29T07:15:23;3.60;89.60
69261;DHT22;56378;52.404;20.816;2022-12-29T07:17:49;3.70;89.40
69261;DHT22;56378;52.404;20.816;2022-12-29T07:20:15;3.70;88.90
69261;DHT22;56378;52.404;20.816;2022-12-29T07:22:41;3.80;88.40
69261;DHT22;56378;52.404;20.816;2022-12-29T07:25:07;3.80;88.30
69261;DHT22;56378;52.404;20.816;2022-12-29T07:27:33;3.90;87.60
69261;DHT22;56378;52.404;20.816;2022-12-29T07:29:59;4.00;86.70
69261;DHT22;56378;52.404;20.816;2022-12-29T07:32:25;4.10;86.50
69261;DHT22;56378;52.404;20.816;2022-12-29T07:34:50;4.30;86.00
69261;DHT22;56378;52.404;20.816;2022-12-29T07:37:16;4.40;85.30
69261;DHT22;56378;52.404;20.816;2022-12-29T07:39:43;4.40;84.50
69261;DHT22;56378;52.404;20.816;2022-12-29T07:42:08;4.40;84.50
69261;DHT22;56378;52.404;20.816;2022-12-29T07:44:34;4.40;84.30
69261;DHT22;56378;52.404;20.816;2022-12-29T07:47:02;4.40;83.90
69261;DHT22;56378;52.404;20.816;2022-12-29T07:49:28;4.50;84.10
69261;DHT22;56378;52.404;20.816;2022-12-29T07:51:54;4.50;83.70
69261;DHT22;56378;52.404;20.816;2022-12-29T07:54:19;4.50;83.60
69261;DHT22;56378;52.404;20.816;2022-12-29T07:56:45;4.50;83.20
69261;DHT22;56378;52.404;20.816;2022-12-29T07:59:11;4.60;82.80
69261;DHT22;56378;52.404;20.816;2022-12-29T08:01:40;4.70;81.60
69261;DHT22;56378;52.404;20.816;2022-12-29T08:04:05;4.80;81.00
69261;DHT22;56378;52.404;20.816;2022-12-29T08:06:31;4.90;80.50
69261;DHT22;56378;52.404;20.816;2022-12-29T08:08:57;5.10;80.10
69261;DHT22;56378;52.404;20.816;2022-12-29T08:11:23;5.20;79.60
69261;DHT22;56378;52.404;20.816;2022-12-29T08:13:49;5.30;78.30
69261;DHT22;56378;52.404;20.816;2022-12-29T08:16:15;5.30;78.10
69261;DHT22;56378;52.404;20.816;2022-12-29T08:18:40;5.30;78.20
69261;DHT22;56378;52.404;20.816;2022-12-29T08:21:06;5.30;77.70
69261;DHT22;56378;52.404;20.816;2022-12-29T08:23:32;5.30;77.60
69261;DHT22;56378;52.404;20.816;2022-12-29T08:26:03;5.30;77.50
69261;DHT22;56378;52.404;20.816;2022-12-29T08:28:30;5.40;77.10
69261;DHT22;56378;52.404;20.816;2022-12-29T08:31:00;5.40;77.30
69261;DHT22;56378;52.404;20.816;2022-12-29T08:33:27;5.50;76.80
69261;DHT22;56378;52.404;20.816;2022-12-29T08:36:04;5.60;77.00
69261;DHT22;56378;52.404;20.816;2022-12-29T08:38:30;5.70;75.00
69261;DHT22;56378;52.404;20.816;2022-12-29T08:40:57;5.80;76.10
69261;DHT22;56378;52.404;20.816;2022-12-29T08:43:23;5.80;74.70
69261;DHT22;56378;52.404;20.816;2022-12-29T08:45:49;5.80;74.30
69261;DHT22;56378;52.404;20.816;2022-12-29T08:48:15;5.90;74.70
69261;DHT22;56378;52.404;20.816;2022-12-29T08:50:44;5.90;74.20
69261;DHT22;56378;52.404;20.816;2022-12-29T08:53:10;5.90;74.00
69261;DHT22;56378;52.404;20.816;2022-12-29T08:55:35;5.90;74.10
69261;DHT22;56378;52.404;20.816;2022-12-29T08:58:01;6.00;73.40
69261;DHT22;56378;52.404;20.816;2022-12-29T09:00:27;6.00;73.60
69261;DHT22;56378;52.404;20.816;2022-12-29T09:02:53;6.00;73.50
69261;DHT22;56378;52.404;20.816;2022-12-29T09:05:18;6.00;72.60
69261;DHT22;56378;52.404;20.816;2022-12-29T09:07:44;6.00;73.00
69261;DHT22;56378;52.404;20.816;2022-12-29T09:10:10;6.00;73.40
69261;DHT22;56378;52.404;20.816;2022-12-29T09:12:35;6.00;72.90
69261;DHT22;56378;52.404;20.816;2022-12-29T09:15:01;5.90;73.10
69261;DHT22;56378;52.404;20.816;2022-12-29T09:17:27;6.00;73.20
69261;DHT22;56378;52.404;20.816;2022-12-29T09:20:16;6.00;72.40
69261;DHT22;56378;52.404;20.816;2022-12-29T09:22:43;6.00;72.40
69261;DHT22;56378;52.404;20.816;2022-12-29T09:25:10;6.10;72.40
69261;DHT22;56378;52.404;20.816;2022-12-29T09:27:36;6.00;72.80
69261;DHT22;56378;52.404;20.816;2022-12-29T09:30:06;6.00;73.30
69261;DHT22;56378;52.404;20.816;2022-12-29T09:32:33;6.00;73.30
69261;DHT22;56378;52.404;20.816;2022-12-29T09:34:58;6.00;73.90
69261;DHT22;56378;52.404;20.816;2022-12-29T09:37:24;6.00;72.90
69261;DHT22;56378;52.404;20.816;2022-12-29T09:39:50;6.00;73.20
69261;DHT22;56378;52.404;20.816;2022-12-29T09:42:27;6.00;73.00
69261;DHT22;56378;52.404;20.816;2022-12-29T09:45:09;6.00;72.80
69261;DHT22;56378;52.404;20.816;2022-12-29T09:47:37;6.10;73.20
69261;DHT22;56378;52.404;20.816;2022-12-29T09:50:20;6.10;72.60
69261;DHT22;56378;52.404;20.816;2022-12-29T09:53:25;6.20;72.60
69261;DHT22;56378;52.404;20.816;2022-12-29T09:56:01;6.20;72.50
69261;DHT22;56378;52.404;20.816;2022-12-29T09:58:40;6.30;72.50
69261;DHT22;56378;52.404;20.816;2022-12-29T10:01:32;6.30;72.40
69261;DHT22;56378;52.404;20.816;2022-12-29T10:04:00;6.30;72.50
69261;DHT22;56378;52.404;20.816;2022-12-29T10:06:39;6.40;71.90
69261;DHT22;56378;52.404;20.816;2022-12-29T10:12:21;6.50;71.60
69261;DHT22;56378;52.404;20.816;2022-12-29T10:23:32;6.60;72.20
69261;DHT22;56378;52.404;20.816;2022-12-29T10:25:59;6.60;71.40
69261;DHT22;56378;52.404;20.816;2022-12-29T10:28:43;6.70;71.10
69261;DHT22;56378;52.404;20.816;2022-12-29T10:31:22;6.70;71.00
69261;DHT22;56378;52.404;20.816;2022-12-29T10:33:57;6.80;71.60
69261;DHT22;56378;52.404;20.816;2022-12-29T10:36:38;6.80;71.40
69261;DHT22;56378;52.404;20.816;2022-12-29T10:41:53;6.90;70.80
69261;DHT22;56378;52.404;20.816;2022-12-29T10:44:20;6.90;70.50
69261;DHT22;56378;52.404;20.816;2022-12-29T10:47:00;7.00;70.70
69261;DHT22;56378;52.404;20.816;2022-12-29T10:49:29;7.00;70.90
69261;DHT22;56378;52.404;20.816;2022-12-29T10:51:58;7.00;70.50
69261;DHT22;56378;52.404;20.816;2022-12-29T10:54:42;7.00;70.80
69261;DHT22;56378;52.404;20.816;2022-12-29T10:59:58;7.00;69.80
69261;DHT22;56378;52.404;20.816;2022-12-29T11:07:41;7.10;69.80
69261;DHT22;56378;52.404;20.816;2022-12-29T11:10:30;7.10;69.80
69261;DHT22;56378;52.404;20.816;2022-12-29T11:13:10;7.20;69.50
69261;DHT22;56378;52.404;20.816;2022-12-29T11:15:41;7.20;68.90
69261;DHT22;56378;52.404;20.816;2022-12-29T11:20:55;7.30;69.10
69261;DHT22;56378;52.404;20.816;2022-12-29T11:23:35;7.30;69.40
69261;DHT22;56378;52.404;20.816;2022-12-29T11:28:41;7.30;70.00
69261;DHT22;56378;52.404;20.816;2022-12-29T11:31:08;7.30;69.50
69261;DHT22;56378;52.404;20.816;2022-12-29T11:33:36;7.30;69.50
69261;DHT22;56378;52.404;20.816;2022-12-29T11:36:22;7.30;69.60
69261;DHT22;56378;52.404;20.816;2022-12-29T11:38:53;7.30;69.70
69261;DHT22;56378;52.404;20.816;2022-12-29T11:41:25;7.30;69.90
69261;DHT22;56378;52.404;20.816;2022-12-29T11:43:55;7.20;70.00
69261;DHT22;56378;52.404;20.816;2022-12-29T11:46:36;7.20;70.10
69261;DHT22;56378;52.404;20.816;2022-12-29T11:49:04;7.30;69.70
69261;DHT22;56378;52.404;20.816;2022-12-29T11:51:43;7.30;69.60
69261;DHT22;56378;52.404;20.816;2022-12-29T11:54:35;7.30;69.40
69261;DHT22;56378;52.404;20.816;2022-12-29T11:57:13;7.30;69.50
69261;DHT22;56378;52.404;20.816;2022-12-29T11:59:52;7.30;69.60
69261;DHT22;56378;52.404;20.816;2022-12-29T12:04:48;7.30;69.60
69261;DHT22;56378;52.404;20.816;2022-12-29T12:07:23;7.30;69.30
69261;DHT22;56378;52.404;20.816;2022-12-29T12:09:57;7.30;69.20
69261;DHT22;56378;52.404;20.816;2022-12-29T12:12:55;7.30;69.90
69261;DHT22;56378;52.404;20.816;2022-12-29T12:21:05;7.50;69.40
69261;DHT22;56378;52.404;20.816;2022-12-29T12:23:38;7.50;69.20
69261;DHT22;56378;52.404;20.816;2022-12-29T12:26:20;7.50;69.60
69261;DHT22;56378;52.404;20.816;2022-12-29T12:29:11;7.50;69.40
69261;DHT22;56378;52.404;20.816;2022-12-29T12:34:23;7.60;69.50
69261;DHT22;56378;52.404;20.816;2022-12-29T12:37:01;7.60;69.10
69261;DHT22;56378;52.404;20.816;2022-12-29T12:40:02;7.70;69.00
69261;DHT22;56378;52.404;20.816;2022-12-29T12:46:12;7.70;69.00
69261;DHT22;56378;52.404;20.816;2022-12-29T12:51:58;7.70;69.00
69261;DHT22;56378;52.404;20.816;2022-12-29T12:57:28;7.80;69.10
69261;DHT22;56378;52.404;20.816;2022-12-29T13:00:07;7.80;68.90
69261;DHT22;56378;52.404;20.816;2022-12-29T13:03:05;7.80;69.10
69261;DHT22;56378;52.404;20.816;2022-12-29T13:09:00;7.80;69.30
69261;DHT22;56378;52.404;20.816;2022-12-29T13:22:43;7.90;68.60
69261;DHT22;56378;52.404;20.816;2022-12-29T13:28:05;8.00;68.60
69261;DHT22;56378;52.404;20.816;2022-12-29T13:30:44;8.00;68.30
69261;DHT22;56378;52.404;20.816;2022-12-29T13:36:08;7.90;69.10
69261;DHT22;56378;52.404;20.816;2022-12-29T13:38:43;7.90;69.20
69261;DHT22;56378;52.404;20.816;2022-12-29T13:41:14;7.90;68.80
69261;DHT22;56378;52.404;20.816;2022-12-29T13:43:43;7.90;69.10
69261;DHT22;56378;52.404;20.816;2022-12-29T13:46:13;7.90;69.10
69261;DHT22;56378;52.404;20.816;2022-12-29T13:48:53;7.90;69.20
69261;DHT22;56378;52.404;20.816;2022-12-29T13:51:21;7.90;69.60
69261;DHT22;56378;52.404;20.816;2022-12-29T13:56:42;7.90;69.60
69261;DHT22;56378;52.404;20.816;2022-12-29T13:59:36;7.90;69.90
69261;DHT22;56378;52.404;20.816;2022-12-29T14:02:26;7.90;69.90
69261;DHT22;56378;52.404;20.816;2022-12-29T14:04:58;7.90;69.80
69261;DHT22;56378;52.404;20.816;2022-12-29T14:07:24;7.90;69.90
69261;DHT22;56378;52.404;20.816;2022-12-29T14:09:52;7.90;69.90
69261;DHT22;56378;52.404;20.816;2022-12-29T14:12:31;7.90;69.70
69261;DHT22;56378;52.404;20.816;2022-12-29T14:17:37;7.90;69.70
69261;DHT22;56378;52.404;20.816;2022-12-29T14:20:06;7.80;69.90
69261;DHT22;56378;52.404;20.816;2022-12-29T14:23:14;7.80;70.00
69261;DHT22;56378;52.404;20.816;2022-12-29T14:28:36;7.70;70.40
69261;DHT22;56378;52.404;20.816;2022-12-29T14:31:05;7.70;70.70
69261;DHT22;56378;52.404;20.816;2022-12-29T14:33:33;7.60;70.70
69261;DHT22;56378;52.404;20.816;2022-12-29T14:36:35;7.50;71.20
69261;DHT22;56378;52.404;20.816;2022-12-29T14:39:02;7.50;71.40
69261;DHT22;56378;52.404;20.816;2022-12-29T14:41:41;7.40;71.80
69261;DHT22;56378;52.404;20.816;2022-12-29T14:49:17;7.30;72.10
69261;DHT22;56378;52.404;20.816;2022-12-29T14:51:43;7.30;72.40
69261;DHT22;56378;52.404;20.816;2022-12-29T14:56:59;7.30;72.40
69261;DHT22;56378;52.404;20.816;2022-12-29T14:59:26;7.30;72.30
69261;DHT22;56378;52.404;20.816;2022-12-29T15:01:55;7.40;72.10
69261;DHT22;56378;52.404;20.816;2022-12-29T15:04:25;7.30;72.40
69261;DHT22;56378;52.404;20.816;2022-12-29T15:06:51;7.30;72.40
69261;DHT22;56378;52.404;20.816;2022-12-29T15:09:34;7.30;72.60
69261;DHT22;56378;52.404;20.816;2022-12-29T15:14:59;7.20;72.90
69261;DHT22;56378;52.404;20.816;2022-12-29T15:17:32;7.20;73.00
69261;DHT22;56378;52.404;20.816;2022-12-29T15:23:12;7.10;73.40
69261;DHT22;56378;52.404;20.816;2022-12-29T15:28:24;7.10;73.70
69261;DHT22;56378;52.404;20.816;2022-12-29T15:30:56;7.00;73.80
69261;DHT22;56378;52.404;20.816;2022-12-29T15:33:24;7.10;73.60
69261;DHT22;56378;52.404;20.816;2022-12-29T15:35:52;7.20;73.70
69261;DHT22;56378;52.404;20.816;2022-12-29T15:38:28;7.10;73.80
69261;DHT22;56378;52.404;20.816;2022-12-29T15:41:01;7.20;73.90
69261;DHT22;56378;52.404;20.816;2022-12-29T15:46:15;7.10;74.00
69261;DHT22;56378;52.404;20.816;2022-12-29T15:48:42;7.00;74.40
69261;DHT22;56378;52.404;20.816;2022-12-29T15:51:18;7.00;74.50
69261;DHT22;56378;52.404;20.816;2022-12-29T15:53:49;7.00;74.50
69261;DHT22;56378;52.404;20.816;2022-12-29T15:56:16;7.00;74.50
69261;DHT22;56378;52.404;20.816;2022-12-29T15:58:48;7.10;74.40
69261;DHT22;56378;52.404;20.816;2022-12-29T16:01:29;7.10;74.40
69261;DHT22;56378;52.404;20.816;2022-12-29T16:03:56;7.10;74.50
69261;DHT22;56378;52.404;20.816;2022-12-29T16:06:28;7.10;74.60
69261;DHT22;56378;52.404;20.816;2022-12-29T16:09:18;7.00;74.50
69261;DHT22;56378;52.404;20.816;2022-12-29T16:11:45;7.10;74.60
69261;DHT22;56378;52.404;20.816;2022-12-29T16:17:03;7.00;74.80
69261;DHT22;56378;52.404;20.816;2022-12-29T16:19:35;7.10;74.70
69261;DHT22;56378;52.404;20.816;2022-12-29T16:22:03;7.00;74.90
69261;DHT22;56378;52.404;20.816;2022-12-29T16:24:31;7.00;75.10
69261;DHT22;56378;52.404;20.816;2022-12-29T16:29:29;7.00;75.20
69261;DHT22;56378;52.404;20.816;2022-12-29T16:31:57;7.00;75.30
69261;DHT22;56378;52.404;20.816;2022-12-29T16:37:35;7.00;75.70
69261;DHT22;56378;52.404;20.816;2022-12-29T16:40:29;6.90;75.70
69261;DHT22;56378;52.404;20.816;2022-12-29T16:43:03;7.00;75.60
69261;DHT22;56378;52.404;20.816;2022-12-29T16:48:30;7.10;75.70
69261;DHT22;56378;52.404;20.816;2022-12-29T16:51:14;7.20;75.40
69261;DHT22;56378;52.404;20.816;2022-12-29T16:54:00;7.20;75.30
69261;DHT22;56378;52.404;20.816;2022-12-29T16:56:29;7.30;75.30
69261;DHT22;56378;52.404;20.816;2022-12-29T16:59:08;7.30;74.90
69261;DHT22;56378;52.404;20.816;2022-12-29T17:01:42;7.40;74.90
69261;DHT22;56378;52.404;20.816;2022-12-29T17:04:10;7.50;74.80
69261;DHT22;56378;52.404;20.816;2022-12-29T17:06:37;7.50;74.60
69261;DHT22;56378;52.404;20.816;2022-12-29T17:09:34;7.60;74.40
69261;DHT22;56378;52.404;20.816;2022-12-29T17:12:01;7.60;74.30
69261;DHT22;56378;52.404;20.816;2022-12-29T17:14:38;7.70;73.90
69261;DHT22;56378;52.404;20.816;2022-12-29T17:19:46;7.70;73.80
69261;DHT22;56378;52.404;20.816;2022-12-29T17:22:18;7.80;73.70
69261;DHT22;56378;52.404;20.816;2022-12-29T17:24:44;7.80;73.70
69261;DHT22;56378;52.404;20.816;2022-12-29T17:29:54;7.80;73.70
69261;DHT22;56378;52.404;20.816;2022-12-29T17:32:20;7.80;73.70
69261;DHT22;56378;52.404;20.816;2022-12-29T17:34:46;7.80;73.70
69261;DHT22;56378;52.404;20.816;2022-12-29T17:37:35;7.80;73.50
69261;DHT22;56378;52.404;20.816;2022-12-29T17:40:03;7.80;73.60
69261;DHT22;56378;52.404;20.816;2022-12-29T17:42:29;7.80;73.60
69261;DHT22;56378;52.404;20.816;2022-12-29T17:44:58;7.80;73.70
69261;DHT22;56378;52.404;20.816;2022-12-29T17:47:24;7.70;73.90
69261;DHT22;56378;52.404;20.816;2022-12-29T17:49:50;7.70;73.90
69261;DHT22;56378;52.404;20.816;2022-12-29T17:52:16;7.70;74.20
69261;DHT22;56378;52.404;20.816;2022-12-29T17:54:49;7.60;74.40
69261;DHT22;56378;52.404;20.816;2022-12-29T17:57:16;7.60;74.30
69261;DHT22;56378;52.404;20.816;2022-12-29T17:59:42;7.60;74.60
69261;DHT22;56378;52.404;20.816;2022-12-29T18:02:25;7.50;74.90
69261;DHT22;56378;52.404;20.816;2022-12-29T18:04:51;7.50;75.00
69261;DHT22;56378;52.404;20.816;2022-12-29T18:07:17;7.50;74.90
69261;DHT22;56378;52.404;20.816;2022-12-29T18:09:43;7.50;75.10
69261;DHT22;56378;52.404;20.816;2022-12-29T18:12:42;7.50;75.00
69261;DHT22;56378;52.404;20.816;2022-12-29T18:17:43;7.50;75.30
69261;DHT22;56378;52.404;20.816;2022-12-29T18:20:09;7.50;75.40
69261;DHT22;56378;52.404;20.816;2022-12-29T18:22:34;7.50;75.40
69261;DHT22;56378;52.404;20.816;2022-12-29T18:25:00;7.50;75.10
69261;DHT22;56378;52.404;20.816;2022-12-29T18:27:27;7.50;75.20
69261;DHT22;56378;52.404;20.816;2022-12-29T18:29:53;7.50;75.30
69261;DHT22;56378;52.404;20.816;2022-12-29T18:32:19;7.60;75.50